createdAt,value
2022-11-21T00:04:15.535Z,94.0
2022-11-21T00:18:15.566Z,92.0
2022-11-21T00:32:15.609Z,90.0
2022-11-21T00:46:15.568Z,92.0
2022-11-21T01:00:15.820Z,93.0
2022-11-21T01:14:15.752Z,94.0
2022-11-21T01:28:15.809Z,94.0
2022-11-21T01:42:15.721Z,93.0
2022-11-21T01:56:15.727Z,92.0
2022-11-21T02:10:15.745Z,94.0
2022-11-21T02:24:15.774Z,95.0
2022-11-21T02:38:15.728Z,95.0
2022-11-21T02:52:15.759Z,95.0
2022-11-21T03:06:15.739Z,95.0
2022-11-21T03:20:15.731Z,96.0
2022-11-21T03:34:15.769Z,96.0
2022-11-21T03:48:15.742Z,97.0
2022-11-21T04:02:15.850Z,96.0
2022-11-21T04:16:15.861Z,96.0
2022-11-21T04:30:15.912Z,96.0
2022-11-21T04:44:16.194Z,96.0
2022-11-21T04:58:16.321Z,97.0
2022-11-21T05:12:16.240Z,97.0
2022-11-21T05:26:16.248Z,97.0
2022-11-21T05:40:16.285Z,97.0
2022-11-21T05:54:16.278Z,97.0
2022-11-21T06:08:16.372Z,98.0
2022-11-21T06:23:16.333Z,98.0
2022-11-21T06:38:16.355Z,98.0
2022-11-21T06:54:17.004Z,97.0
2022-11-21T07:09:33.596Z,98.0
2022-11-21T07:24:16.428Z,98.0
2022-11-21T07:39:16.455Z,98.0
2022-11-21T07:54:16.736Z,96.0
2022-11-21T08:09:16.501Z,90.0
2022-11-21T08:24:16.454Z,83.0
2022-11-21T08:39:16.494Z,79.0
2022-11-21T08:54:16.511Z,74.0
2022-11-21T09:09:19.392Z,69.0
2022-11-21T09:24:16.533Z,72.0
2022-11-21T09:39:16.551Z,69.0
2022-11-21T09:54:16.599Z,71.0
2022-11-21T10:09:16.585Z,74.0
2022-11-21T10:24:16.637Z,71.0
2022-11-21T10:42:48.594Z,69.0
2022-11-21T10:52:10.926Z,70.0
2022-11-21T11:07:10.780Z,69.0
2022-11-21T11:22:10.808Z,70.0
2022-11-21T11:37:10.838Z,69.0
2022-11-21T11:52:11.188Z,69.0
2022-11-21T12:08:06.239Z,67.0
2022-11-21T12:22:11.282Z,67.0
2022-11-21T12:37:11.332Z,66.0
2022-11-21T12:52:11.335Z,65.0
2022-11-21T13:07:11.366Z,64.0
2022-11-21T13:22:11.377Z,66.0
2022-11-21T13:37:11.415Z,71.0
2022-11-21T13:52:11.436Z,73.0
2022-11-21T14:07:11.576Z,74.0
2022-11-21T14:22:11.452Z,74.0
2022-11-21T14:37:11.554Z,75.0
2022-11-21T14:52:11.576Z,77.0
2022-11-21T15:07:11.664Z,78.0
2022-11-21T15:22:12.588Z,83.0
2022-11-21T15:38:11.603Z,86.0
2022-11-21T15:53:11.627Z,89.0
2022-11-21T16:08:11.704Z,91.0
2022-11-21T16:22:13.062Z,92.0
2022-11-21T16:36:11.657Z,93.0
2022-11-21T16:50:11.678Z,93.0
2022-11-21T17:04:15.730Z,93.0
2022-11-21T17:18:11.722Z,93.0
2022-11-21T17:32:11.712Z,94.0
2022-11-21T17:46:11.735Z,91.0
2022-11-21T18:00:11.721Z,91.0
2022-11-21T18:14:11.712Z,92.0
2022-11-21T18:28:11.739Z,93.0
2022-11-21T18:42:11.829Z,94.0
2022-11-21T18:56:11.800Z,93.0
2022-11-21T19:10:41.135Z,93.0
2022-11-21T19:24:11.893Z,94.0
2022-11-21T19:39:11.928Z,90.0
2022-11-21T19:53:11.928Z,89.0
2022-11-21T20:07:12.027Z,86.0
2022-11-21T20:21:12.008Z,83.0
2022-11-21T20:35:12.030Z,82.0
2022-11-21T20:49:12.217Z,79.0
2022-11-21T21:03:12.202Z,78.0
2022-11-21T21:17:12.273Z,78.0
2022-11-21T21:31:12.295Z,82.0
2022-11-21T21:45:36.306Z,83.0
2022-11-21T21:59:12.364Z,79.0
2022-11-21T22:13:12.365Z,81.0
2022-11-21T22:27:12.452Z,85.0
2022-11-21T22:41:12.432Z,87.0
2022-11-21T22:55:12.535Z,90.0
2022-11-21T23:09:12.541Z,92.0
2022-11-21T23:23:12.559Z,93.0
2022-11-21T23:37:12.839Z,95.0
2022-11-21T23:51:12.784Z,95.0
